sensor_id;sensor_type;location;lat;lon;timestamp;pressure;altitude;pressure_sealevel;temperature;humidity
68859;BME280;55864;49.238;8.092;2023-04-04T00:00:15;100403.34;;;3.86;55.88
68859;BME280;55864;49.238;8.092;2023-04-04T00:02:15;100403.72;;;3.95;56.07
68859;BME280;55864;49.238;8.092;2023-04-04T00:04:16;100403.72;;;4.12;55.40
68859;BME280;55864;49.238;8.092;2023-04-04T00:06:18;100402.56;;;4.18;54.89
68859;BME280;55864;49.238;8.092;2023-04-04T00:08:19;100407.00;;;4.16;54.58
68859;BME280;55864;49.238;8.092;2023-04-04T00:10:19;100397.09;;;4.22;54.94
68859;BME280;55864;49.238;8.092;2023-04-04T00:12:20;100392.94;;;4.20;54.52
68859;BME280;55864;49.238;8.092;2023-04-04T00:14:20;100395.16;;;4.10;54.83
68859;BME280;55864;49.238;8.092;2023-04-04T00:16:21;100397.44;;;4.16;54.94
68859;BME280;55864;49.238;8.092;2023-04-04T00:18:21;100383.28;;;4.22;54.46
68859;BME280;55864;49.238;8.092;2023-04-04T00:20:22;100390.16;;;4.23;54.32
68859;BME280;55864;49.238;8.092;2023-04-04T00:22:24;100385.72;;;4.25;54.40
68859;BME280;55864;49.238;8.092;2023-04-04T00:24:24;100385.31;;;4.32;53.18
68859;BME280;55864;49.238;8.092;2023-04-04T00:26:25;100382.53;;;4.35;54.07
68859;BME280;55864;49.238;8.092;2023-04-04T00:28:25;100381.38;;;4.25;53.96
68859;BME280;55864;49.238;8.092;2023-04-04T00:30:26;100375.41;;;4.23;54.23
68859;BME280;55864;49.238;8.092;2023-04-04T00:32:27;100379.53;;;4.27;54.31
68859;BME280;55864;49.238;8.092;2023-04-04T00:34:28;100373.31;;;4.30;53.22
68859;BME280;55864;49.238;8.092;2023-04-04T00:36:29;100374.47;;;4.24;54.00
68859;BME280;55864;49.238;8.092;2023-04-04T00:38:31;100371.28;;;4.19;53.87
68859;BME280;55864;49.238;8.092;2023-04-04T00:40:31;100367.53;;;4.08;53.65
68859;BME280;55864;49.238;8.092;2023-04-04T00:42:32;100373.44;;;4.11;53.62
68859;BME280;55864;49.238;8.092;2023-04-04T00:44:33;100376.09;;;4.10;53.44
68859;BME280;55864;49.238;8.092;2023-04-04T00:46:34;100367.75;;;4.20;53.17
68859;BME280;55864;49.238;8.092;2023-04-04T00:48:35;100367.59;;;4.23;53.36
68859;BME280;55864;49.238;8.092;2023-04-04T00:50:35;100367.91;;;4.17;53.35
68859;BME280;55864;49.238;8.092;2023-04-04T00:52:36;100362.94;;;4.13;54.29
68859;BME280;55864;49.238;8.092;2023-04-04T00:54:38;100360.19;;;4.16;54.07
68859;BME280;55864;49.238;8.092;2023-04-04T00:56:39;100366.91;;;4.20;53.65
68859;BME280;55864;49.238;8.092;2023-04-04T00:58:40;100365.78;;;4.08;53.80
68859;BME280;55864;49.238;8.092;2023-04-04T01:00:40;100364.75;;;3.78;54.47
68859;BME280;55864;49.238;8.092;2023-04-04T01:02:41;100367.50;;;3.58;55.04
68859;BME280;55864;49.238;8.092;2023-04-04T01:04:43;100371.50;;;3.65;55.45
68859;BME280;55864;49.238;8.092;2023-04-04T01:06:43;100364.13;;;3.56;55.66
68859;BME280;55864;49.238;8.092;2023-04-04T01:08:44;100366.44;;;3.45;55.66
68859;BME280;55864;49.238;8.092;2023-04-04T01:10:47;100366.81;;;3.71;53.89
68859;BME280;55864;49.238;8.092;2023-04-04T01:12:48;100368.91;;;3.82;53.65
68859;BME280;55864;49.238;8.092;2023-04-04T01:14:49;100364.13;;;3.90;54.13
68859;BME280;55864;49.238;8.092;2023-04-04T01:16:50;100370.53;;;4.00;53.08
68859;BME280;55864;49.238;8.092;2023-04-04T01:18:53;100357.63;;;3.99;53.54
68859;BME280;55864;49.238;8.092;2023-04-04T01:20:57;100363.31;;;3.72;54.87
68859;BME280;55864;49.238;8.092;2023-04-04T01:23:00;100362.00;;;3.47;55.30
68859;BME280;55864;49.238;8.092;2023-04-04T01:25:04;100358.19;;;3.37;56.53
68859;BME280;55864;49.238;8.092;2023-04-04T01:27:07;100359.56;;;3.27;56.38
68859;BME280;55864;49.238;8.092;2023-04-04T01:29:13;100349.09;;;3.28;56.42
68859;BME280;55864;49.238;8.092;2023-04-04T01:31:19;100353.63;;;3.06;56.34
68859;BME280;55864;49.238;8.092;2023-04-04T01:33:24;100350.19;;;3.06;56.78
68859;BME280;55864;49.238;8.092;2023-04-04T01:35:34;100354.25;;;2.75;57.68
68859;BME280;55864;49.238;8.092;2023-04-04T01:37:37;100345.31;;;2.81;58.33
68859;BME280;55864;49.238;8.092;2023-04-04T01:39:48;100348.84;;;2.80;57.78
68859;BME280;55864;49.238;8.092;2023-04-04T01:41:49;100345.00;;;2.70;58.78
68859;BME280;55864;49.238;8.092;2023-04-04T01:43:52;100356.31;;;2.86;57.64
68859;BME280;55864;49.238;8.092;2023-04-04T01:45:52;100351.75;;;3.27;56.05
68859;BME280;55864;49.238;8.092;2023-04-04T01:47:53;100349.78;;;2.96;56.31
68859;BME280;55864;49.238;8.092;2023-04-04T01:49:56;100344.72;;;2.57;57.46
68859;BME280;55864;49.238;8.092;2023-04-04T01:51:58;100346.25;;;2.80;57.38
68859;BME280;55864;49.238;8.092;2023-04-04T01:53:59;100349.91;;;2.76;57.80
68859;BME280;55864;49.238;8.092;2023-04-04T01:56:00;100350.78;;;2.75;57.63
68859;BME280;55864;49.238;8.092;2023-04-04T01:58:01;100336.75;;;2.98;56.52
68859;BME280;55864;49.238;8.092;2023-04-04T02:00:04;100343.94;;;3.10;56.96
68859;BME280;55864;49.238;8.092;2023-04-04T02:02:15;100324.75;;;3.31;56.17
68859;BME280;55864;49.238;8.092;2023-04-04T02:04:16;100341.09;;;3.33;55.73
68859;BME280;55864;49.238;8.092;2023-04-04T02:06:17;100341.53;;;3.41;55.86
68859;BME280;55864;49.238;8.092;2023-04-04T02:08:17;100336.56;;;3.36;56.02
68859;BME280;55864;49.238;8.092;2023-04-04T02:10:24;100335.34;;;3.26;56.19
68859;BME280;55864;49.238;8.092;2023-04-04T02:12:25;100344.94;;;3.07;56.07
68859;BME280;55864;49.238;8.092;2023-04-04T02:14:25;100346.56;;;3.27;56.51
68859;BME280;55864;49.238;8.092;2023-04-04T02:16:28;100341.59;;;3.39;55.90
68859;BME280;55864;49.238;8.092;2023-04-04T02:18:28;100341.69;;;3.38;56.39
68859;BME280;55864;49.238;8.092;2023-04-04T02:20:29;100336.66;;;3.35;56.20
68859;BME280;55864;49.238;8.092;2023-04-04T02:22:30;100349.78;;;3.32;55.90
68859;BME280;55864;49.238;8.092;2023-04-04T02:24:30;100332.44;;;3.32;56.20
68859;BME280;55864;49.238;8.092;2023-04-04T02:26:31;100328.88;;;3.35;55.20
68859;BME280;55864;49.238;8.092;2023-04-04T02:28:32;100328.41;;;3.44;55.85
68859;BME280;55864;49.238;8.092;2023-04-04T02:30:32;100330.31;;;3.40;54.99
68859;BME280;55864;49.238;8.092;2023-04-04T02:32:35;100321.84;;;3.37;55.31
68859;BME280;55864;49.238;8.092;2023-04-04T02:34:36;100317.47;;;3.37;55.12
68859;BME280;55864;49.238;8.092;2023-04-04T02:36:37;100324.56;;;3.51;54.23
68859;BME280;55864;49.238;8.092;2023-04-04T02:38:38;100328.09;;;3.50;55.16
68859;BME280;55864;49.238;8.092;2023-04-04T02:40:39;100327.56;;;3.43;54.42
68859;BME280;55864;49.238;8.092;2023-04-04T02:42:42;100336.28;;;3.42;55.07
68859;BME280;55864;49.238;8.092;2023-04-04T02:44:43;100322.75;;;3.36;55.18
68859;BME280;55864;49.238;8.092;2023-04-04T02:46:47;100327.16;;;3.34;55.25
68859;BME280;55864;49.238;8.092;2023-04-04T02:48:51;100327.19;;;3.51;55.25
68859;BME280;55864;49.238;8.092;2023-04-04T02:50:52;100315.25;;;3.47;55.66
68859;BME280;55864;49.238;8.092;2023-04-04T02:52:58;100322.91;;;3.50;55.29
68859;BME280;55864;49.238;8.092;2023-04-04T02:54:58;100320.69;;;3.42;54.91
68859;BME280;55864;49.238;8.092;2023-04-04T02:57:06;100318.78;;;3.46;54.15
68859;BME280;55864;49.238;8.092;2023-04-04T02:59:06;100321.13;;;3.50;54.87
68859;BME280;55864;49.238;8.092;2023-04-04T03:01:07;100322.28;;;3.45;55.10
68859;BME280;55864;49.238;8.092;2023-04-04T03:03:10;100319.84;;;3.42;54.77
68859;BME280;55864;49.238;8.092;2023-04-04T03:05:17;100325.63;;;3.13;55.97
68859;BME280;55864;49.238;8.092;2023-04-04T03:07:17;100317.00;;;2.76;56.99
68859;BME280;55864;49.238;8.092;2023-04-04T03:09:18;100323.56;;;2.66;57.90
68859;BME280;55864;49.238;8.092;2023-04-04T03:11:19;100324.38;;;2.48;57.86
68859;BME280;55864;49.238;8.092;2023-04-04T03:13:20;100334.69;;;2.31;58.75
68859;BME280;55864;49.238;8.092;2023-04-04T03:15:21;100331.47;;;2.45;58.03
68859;BME280;55864;49.238;8.092;2023-04-04T03:17:21;100332.22;;;2.28;57.27
68859;BME280;55864;49.238;8.092;2023-04-04T03:19:23;100334.22;;;2.42;57.50
68859;BME280;55864;49.238;8.092;2023-04-04T03:21:26;100333.28;;;2.24;57.12
68859;BME280;55864;49.238;8.092;2023-04-04T03:23:29;100329.78;;;1.86;58.50
68859;BME280;55864;49.238;8.092;2023-04-04T03:25:31;100327.56;;;1.98;59.16
68859;BME280;55864;49.238;8.092;2023-04-04T03:27:32;100323.75;;;1.86;59.40
68859;BME280;55864;49.238;8.092;2023-04-04T03:29:33;100332.22;;;1.89;59.30
68859;BME280;55864;49.238;8.092;2023-04-04T03:31:33;100327.47;;;1.60;60.17
68859;BME280;55864;49.238;8.092;2023-04-04T03:33:34;100331.91;;;1.97;60.02
68859;BME280;55864;49.238;8.092;2023-04-04T03:35:36;100327.13;;;2.08;59.91
68859;BME280;55864;49.238;8.092;2023-04-04T03:37:39;100330.50;;;1.90;60.60
68859;BME280;55864;49.238;8.092;2023-04-04T03:39:40;100326.81;;;2.14;59.55
68859;BME280;55864;49.238;8.092;2023-04-04T03:41:40;100327.78;;;1.93;60.53
68859;BME280;55864;49.238;8.092;2023-04-04T03:43:41;100324.78;;;2.02;60.12
68859;BME280;55864;49.238;8.092;2023-04-04T03:45:41;100329.84;;;1.85;60.89
68859;BME280;55864;49.238;8.092;2023-04-04T03:47:43;100330.38;;;1.73;61.24
68859;BME280;55864;49.238;8.092;2023-04-04T03:49:43;100331.78;;;2.00;60.14
68859;BME280;55864;49.238;8.092;2023-04-04T03:51:45;100339.47;;;2.02;59.42
68859;BME280;55864;49.238;8.092;2023-04-04T03:53:47;100335.47;;;1.95;60.21
68859;BME280;55864;49.238;8.092;2023-04-04T03:55:48;100344.47;;;2.06;59.21
68859;BME280;55864;49.238;8.092;2023-04-04T03:57:48;100331.53;;;1.86;60.17
68859;BME280;55864;49.238;8.092;2023-04-04T03:59:50;100327.25;;;1.65;60.47
68859;BME280;55864;49.238;8.092;2023-04-04T04:01:51;100331.34;;;1.70;60.85
68859;BME280;55864;49.238;8.092;2023-04-04T04:03:52;100326.81;;;1.75;60.41
68859;BME280;55864;49.238;8.092;2023-04-04T04:05:52;100339.84;;;1.74;60.32
68859;BME280;55864;49.238;8.092;2023-04-04T04:07:53;100335.19;;;1.62;60.45
68859;BME280;55864;49.238;8.092;2023-04-04T04:09:55;100336.50;;;1.70;60.22
68859;BME280;55864;49.238;8.092;2023-04-04T04:11:56;100330.94;;;2.00;59.25
68859;BME280;55864;49.238;8.092;2023-04-04T04:13:56;100330.41;;;1.91;58.97
68859;BME280;55864;49.238;8.092;2023-04-04T04:15:57;100322.09;;;1.85;59.78
68859;BME280;55864;49.238;8.092;2023-04-04T04:17:58;100327.38;;;1.82;59.72
68859;BME280;55864;49.238;8.092;2023-04-04T04:20:01;100323.78;;;2.05;58.81
68859;BME280;55864;49.238;8.092;2023-04-04T04:22:10;100324.41;;;1.91;59.07
68859;BME280;55864;49.238;8.092;2023-04-04T04:24:10;100322.47;;;1.96;59.35
68859;BME280;55864;49.238;8.092;2023-04-04T04:26:12;100330.25;;;1.76;60.30
68859;BME280;55864;49.238;8.092;2023-04-04T04:28:13;100319.94;;;1.74;60.11
68859;BME280;55864;49.238;8.092;2023-04-04T04:30:14;100325.16;;;1.54;60.76
68859;BME280;55864;49.238;8.092;2023-04-04T04:32:18;100319.13;;;1.34;61.18
68859;BME280;55864;49.238;8.092;2023-04-04T04:34:22;100324.31;;;1.74;60.04
68859;BME280;55864;49.238;8.092;2023-04-04T04:36:23;100324.63;;;1.66;60.55
68859;BME280;55864;49.238;8.092;2023-04-04T04:38:42;100323.28;;;1.38;61.31
68859;BME280;55864;49.238;8.092;2023-04-04T04:40:44;100330.19;;;1.57;60.71
68859;BME280;55864;49.238;8.092;2023-04-04T04:42:52;100325.41;;;1.48;60.27
68859;BME280;55864;49.238;8.092;2023-04-04T04:44:55;100327.97;;;1.48;60.64
68859;BME280;55864;49.238;8.092;2023-04-04T04:46:57;100335.09;;;1.43;61.31
68859;BME280;55864;49.238;8.092;2023-04-04T04:48:57;100337.44;;;1.49;60.85
68859;BME280;55864;49.238;8.092;2023-04-04T04:51:02;100334.00;;;1.49;60.22
68859;BME280;55864;49.238;8.092;2023-04-04T04:53:12;100339.44;;;1.43;61.45
68859;BME280;55864;49.238;8.092;2023-04-04T04:55:12;100335.09;;;1.43;60.84
68859;BME280;55864;49.238;8.092;2023-04-04T04:57:19;100334.50;;;1.37;60.50
68859;BME280;55864;49.238;8.092;2023-04-04T04:59:21;100331.53;;;1.26;61.35
68859;BME280;55864;49.238;8.092;2023-04-04T05:01:22;100330.31;;;1.74;60.22
68859;BME280;55864;49.238;8.092;2023-04-04T05:03:23;100334.09;;;1.47;61.09
68859;BME280;55864;49.238;8.092;2023-04-04T05:05:24;100335.75;;;1.28;61.83
68859;BME280;55864;49.238;8.092;2023-04-04T05:07:29;100336.53;;;1.30;60.82
68859;BME280;55864;49.238;8.092;2023-04-04T05:09:29;100342.72;;;1.26;61.36
68859;BME280;55864;49.238;8.092;2023-04-04T05:11:30;100339.34;;;1.24;61.63
68859;BME280;55864;49.238;8.092;2023-04-04T05:13:32;100338.66;;;1.21;61.79
68859;BME280;55864;49.238;8.092;2023-04-04T05:15:34;100331.91;;;1.17;62.09
68859;BME280;55864;49.238;8.092;2023-04-04T05:17:36;100332.94;;;1.33;60.65
68859;BME280;55864;49.238;8.092;2023-04-04T05:19:39;100326.81;;;1.15;61.50
68859;BME280;55864;49.238;8.092;2023-04-04T05:21:40;100327.13;;;1.28;61.16
68859;BME280;55864;49.238;8.092;2023-04-04T05:23:44;100330.13;;;1.39;60.79
68859;BME280;55864;49.238;8.092;2023-04-04T05:25:47;100331.81;;;1.60;60.33
68859;BME280;55864;49.238;8.092;2023-04-04T05:27:48;100332.28;;;1.49;59.88
68859;BME280;55864;49.238;8.092;2023-04-04T05:29:52;100332.13;;;1.52;60.24
68859;BME280;55864;49.238;8.092;2023-04-04T05:31:56;100335.88;;;1.45;60.92
68859;BME280;55864;49.238;8.092;2023-04-04T05:33:57;100324.56;;;1.68;60.07
68859;BME280;55864;49.238;8.092;2023-04-04T05:36:07;100340.34;;;1.62;59.93
68859;BME280;55864;49.238;8.092;2023-04-04T05:38:13;100331.47;;;1.67;59.65
68859;BME280;55864;49.238;8.092;2023-04-04T05:40:15;100336.84;;;1.63;60.16
68859;BME280;55864;49.238;8.092;2023-04-04T05:42:18;100341.28;;;1.61;60.31
68859;BME280;55864;49.238;8.092;2023-04-04T05:44:24;100342.88;;;1.63;60.24
68859;BME280;55864;49.238;8.092;2023-04-04T05:46:25;100339.97;;;1.71;59.73
68859;BME280;55864;49.238;8.092;2023-04-04T05:48:28;100343.22;;;1.76;59.37
68859;BME280;55864;49.238;8.092;2023-04-04T05:50:30;100343.84;;;1.81;59.57
68859;BME280;55864;49.238;8.092;2023-04-04T05:52:35;100340.75;;;1.93;58.98
68859;BME280;55864;49.238;8.092;2023-04-04T05:54:36;100344.03;;;1.76;59.88
68859;BME280;55864;49.238;8.092;2023-04-04T05:56:42;100355.84;;;1.83;59.79
68859;BME280;55864;49.238;8.092;2023-04-04T05:58:53;100345.25;;;1.88;58.69
68859;BME280;55864;49.238;8.092;2023-04-04T06:00:54;100339.66;;;1.58;59.43
68859;BME280;55864;49.238;8.092;2023-04-04T06:02:57;100338.41;;;1.67;60.06
68859;BME280;55864;49.238;8.092;2023-04-04T06:05:00;100341.91;;;1.66;60.29
68859;BME280;55864;49.238;8.092;2023-04-04T06:07:07;100348.38;;;1.56;59.69
68859;BME280;55864;49.238;8.092;2023-04-04T06:09:07;100353.16;;;1.45;60.26
68859;BME280;55864;49.238;8.092;2023-04-04T06:11:09;100353.81;;;1.90;59.73
68859;BME280;55864;49.238;8.092;2023-04-04T06:13:09;100351.03;;;1.74;59.98
68859;BME280;55864;49.238;8.092;2023-04-04T06:15:10;100354.06;;;1.84;60.16
68859;BME280;55864;49.238;8.092;2023-04-04T06:17:11;100356.97;;;1.76;59.05
68859;BME280;55864;49.238;8.092;2023-04-04T06:19:12;100365.56;;;1.97;58.69
68859;BME280;55864;49.238;8.092;2023-04-04T06:21:14;100359.81;;;2.11;58.32
68859;BME280;55864;49.238;8.092;2023-04-04T06:23:14;100363.88;;;2.16;58.50
68859;BME280;55864;49.238;8.092;2023-04-04T06:25:19;100356.88;;;2.18;58.66
68859;BME280;55864;49.238;8.092;2023-04-04T06:27:20;100358.56;;;2.19;58.91
68859;BME280;55864;49.238;8.092;2023-04-04T06:29:21;100367.25;;;2.18;59.27
68859;BME280;55864;49.238;8.092;2023-04-04T06:31:22;100360.50;;;2.14;59.50
68859;BME280;55864;49.238;8.092;2023-04-04T06:33:23;100362.06;;;2.18;58.58
68859;BME280;55864;49.238;8.092;2023-04-04T06:35:24;100366.38;;;2.38;57.64
68859;BME280;55864;49.238;8.092;2023-04-04T06:37:36;100357.63;;;2.40;57.08
68859;BME280;55864;49.238;8.092;2023-04-04T06:39:44;100354.19;;;2.40;57.66
68859;BME280;55864;49.238;8.092;2023-04-04T06:41:54;100358.66;;;2.36;58.34
68859;BME280;55864;49.238;8.092;2023-04-04T06:43:59;100362.06;;;2.37;58.88
68859;BME280;55864;49.238;8.092;2023-04-04T06:46:00;100365.75;;;2.51;58.36
68859;BME280;55864;49.238;8.092;2023-04-04T06:48:01;100365.75;;;2.51;57.35
68859;BME280;55864;49.238;8.092;2023-04-04T06:50:02;100364.81;;;2.52;57.32
68859;BME280;55864;49.238;8.092;2023-04-04T06:52:03;100367.91;;;2.60;58.20
68859;BME280;55864;49.238;8.092;2023-04-04T06:54:05;100367.75;;;2.63;58.22
68859;BME280;55864;49.238;8.092;2023-04-04T06:56:07;100368.94;;;2.75;56.46
68859;BME280;55864;49.238;8.092;2023-04-04T06:58:08;100366.28;;;2.76;57.21
68859;BME280;55864;49.238;8.092;2023-04-04T07:00:10;100370.16;;;2.68;57.52
68859;BME280;55864;49.238;8.092;2023-04-04T07:02:10;100368.53;;;2.84;56.71
68859;BME280;55864;49.238;8.092;2023-04-04T07:04:11;100367.81;;;2.80;57.37
68859;BME280;55864;49.238;8.092;2023-04-04T07:06:11;100370.47;;;2.98;56.43
68859;BME280;55864;49.238;8.092;2023-04-04T07:08:12;100369.22;;;3.06;56.76
68859;BME280;55864;49.238;8.092;2023-04-04T07:10:14;100370.09;;;3.05;55.61
68859;BME280;55864;49.238;8.092;2023-04-04T07:12:15;100362.03;;;3.11;55.75
68859;BME280;55864;49.238;8.092;2023-04-04T07:14:16;100362.72;;;3.15;56.41
68859;BME280;55864;49.238;8.092;2023-04-04T07:16:16;100358.88;;;3.23;55.97
68859;BME280;55864;49.238;8.092;2023-04-04T07:18:17;100361.84;;;3.33;55.17
68859;BME280;55864;49.238;8.092;2023-04-04T07:20:17;100366.88;;;3.36;54.76
68859;BME280;55864;49.238;8.092;2023-04-04T07:22:18;100367.72;;;3.36;54.51
68859;BME280;55864;49.238;8.092;2023-04-04T07:24:18;100369.66;;;3.33;54.33
68859;BME280;55864;49.238;8.092;2023-04-04T07:26:20;100367.66;;;3.38;54.76
68859;BME280;55864;49.238;8.092;2023-04-04T07:28:21;100364.22;;;3.37;54.38
68859;BME280;55864;49.238;8.092;2023-04-04T07:30:21;100363.13;;;3.24;54.88
68859;BME280;55864;49.238;8.092;2023-04-04T07:32:22;100363.97;;;3.25;54.54
68859;BME280;55864;49.238;8.092;2023-04-04T07:34:23;100362.16;;;3.27;54.28
68859;BME280;55864;49.238;8.092;2023-04-04T07:36:23;100360.03;;;3.35;54.76
68859;BME280;55864;49.238;8.092;2023-04-04T07:38:24;100357.88;;;3.77;54.30
68859;BME280;55864;49.238;8.092;2023-04-04T07:40:24;100355.56;;;3.71;53.36
68859;BME280;55864;49.238;8.092;2023-04-04T07:42:26;100357.19;;;3.73;53.67
68859;BME280;55864;49.238;8.092;2023-04-04T07:44:27;100359.03;;;3.71;53.72
68859;BME280;55864;49.238;8.092;2023-04-04T07:46:27;100361.63;;;3.71;54.43
68859;BME280;55864;49.238;8.092;2023-04-04T07:48:28;100360.63;;;3.74;54.75
68859;BME280;55864;49.238;8.092;2023-04-04T07:50:28;100359.72;;;3.75;54.74
68859;BME280;55864;49.238;8.092;2023-04-04T07:52:29;100357.88;;;3.77;53.25
68859;BME280;55864;49.238;8.092;2023-04-04T07:54:30;100360.34;;;3.80;53.66
68859;BME280;55864;49.238;8.092;2023-04-04T07:56:30;100356.66;;;3.84;53.52
68859;BME280;55864;49.238;8.092;2023-04-04T07:58:36;100352.69;;;3.77;53.21
68859;BME280;55864;49.238;8.092;2023-04-04T08:00:37;100349.69;;;3.84;54.52
68859;BME280;55864;49.238;8.092;2023-04-04T08:02:38;100357.03;;;3.94;53.90
68859;BME280;55864;49.238;8.092;2023-04-04T08:04:38;100362.16;;;3.95;53.24
68859;BME280;55864;49.238;8.092;2023-04-04T08:06:39;100352.75;;;3.93;53.62
68859;BME280;55864;49.238;8.092;2023-04-04T08:08:40;100355.78;;;4.01;53.09
68859;BME280;55864;49.238;8.092;2023-04-04T08:10:40;100347.81;;;4.04;53.48
68859;BME280;55864;49.238;8.092;2023-04-04T08:12:40;100356.16;;;4.10;54.31
68859;BME280;55864;49.238;8.092;2023-04-04T08:14:42;100358.50;;;4.15;53.78
68859;BME280;55864;49.238;8.092;2023-04-04T08:16:43;100346.94;;;4.20;53.73
68859;BME280;55864;49.238;8.092;2023-04-04T08:18:43;100350.31;;;4.22;53.31
68859;BME280;55864;49.238;8.092;2023-04-04T08:20:45;100360.88;;;4.19;53.60
68859;BME280;55864;49.238;8.092;2023-04-04T08:22:46;100361.06;;;4.32;52.42
68859;BME280;55864;49.238;8.092;2023-04-04T08:24:46;100358.34;;;4.50;53.40
68859;BME280;55864;49.238;8.092;2023-04-04T08:26:47;100359.25;;;4.49;51.85
68859;BME280;55864;49.238;8.092;2023-04-04T08:28:48;100347.28;;;4.78;51.58
68859;BME280;55864;49.238;8.092;2023-04-04T08:30:52;100347.84;;;4.99;51.08
68859;BME280;55864;49.238;8.092;2023-04-04T08:32:53;100349.25;;;5.20;50.30
68859;BME280;55864;49.238;8.092;2023-04-04T08:34:53;100349.03;;;5.09;50.66
68859;BME280;55864;49.238;8.092;2023-04-04T08:36:54;100351.44;;;4.96;48.45
68859;BME280;55864;49.238;8.092;2023-04-04T08:38:54;100356.22;;;5.04;47.37
68859;BME280;55864;49.238;8.092;2023-04-04T08:40:55;100347.75;;;5.16;47.22
68859;BME280;55864;49.238;8.092;2023-04-04T08:42:56;100353.19;;;5.27;45.35
68859;BME280;55864;49.238;8.092;2023-04-04T08:44:58;100355.44;;;5.33;45.28
68859;BME280;55864;49.238;8.092;2023-04-04T08:47:03;100350.47;;;5.44;43.98
68859;BME280;55864;49.238;8.092;2023-04-04T08:49:04;100345.47;;;5.55;43.28
68859;BME280;55864;49.238;8.092;2023-04-04T08:51:06;100346.09;;;5.44;44.39
68859;BME280;55864;49.238;8.092;2023-04-04T08:53:08;100348.03;;;5.70;44.15
68859;BME280;55864;49.238;8.092;2023-04-04T08:55:09;100343.75;;;5.69;44.43
68859;BME280;55864;49.238;8.092;2023-04-04T08:57:11;100341.94;;;5.86;44.18
68859;BME280;55864;49.238;8.092;2023-04-04T08:59:11;100335.91;;;6.13;44.76
68859;BME280;55864;49.238;8.092;2023-04-04T09:01:12;100343.63;;;6.29;43.80
68859;BME280;55864;49.238;8.092;2023-04-04T09:03:23;100339.06;;;6.32;43.68
68859;BME280;55864;49.238;8.092;2023-04-04T09:05:24;100336.66;;;6.29;42.14
68859;BME280;55864;49.238;8.092;2023-04-04T09:07:24;100347.00;;;6.45;43.55
68859;BME280;55864;49.238;8.092;2023-04-04T09:09:25;100347.81;;;6.59;42.31
68859;BME280;55864;49.238;8.092;2023-04-04T09:11:29;100343.50;;;6.73;42.33
68859;BME280;55864;49.238;8.092;2023-04-04T09:13:30;100343.22;;;6.77;41.21
68859;BME280;55864;49.238;8.092;2023-04-04T09:15:31;100334.69;;;6.88;41.09
68859;BME280;55864;49.238;8.092;2023-04-04T09:17:32;100335.94;;;6.82;39.77
68859;BME280;55864;49.238;8.092;2023-04-04T09:19:34;100337.91;;;7.05;41.53
68859;BME280;55864;49.238;8.092;2023-04-04T09:21:36;100337.06;;;7.05;40.14
68859;BME280;55864;49.238;8.092;2023-04-04T09:23:37;100344.38;;;7.26;41.40
68859;BME280;55864;49.238;8.092;2023-04-04T09:25:43;100344.03;;;6.92;39.67
68859;BME280;55864;49.238;8.092;2023-04-04T09:27:44;100342.00;;;6.83;40.06
68859;BME280;55864;49.238;8.092;2023-04-04T09:29:44;100343.16;;;6.91;40.64
68859;BME280;55864;49.238;8.092;2023-04-04T09:31:45;100345.50;;;6.96;41.02
68859;BME280;55864;49.238;8.092;2023-04-04T09:33:47;100335.09;;;7.08;40.90
68859;BME280;55864;49.238;8.092;2023-04-04T09:35:51;100340.72;;;7.29;41.53
68859;BME280;55864;49.238;8.092;2023-04-04T09:37:53;100340.03;;;7.39;39.78
68859;BME280;55864;49.238;8.092;2023-04-04T09:39:55;100329.84;;;7.22;40.04
68859;BME280;55864;49.238;8.092;2023-04-04T09:41:56;100330.81;;;7.34;39.79
68859;BME280;55864;49.238;8.092;2023-04-04T09:43:57;100344.41;;;7.12;40.32
68859;BME280;55864;49.238;8.092;2023-04-04T09:45:59;100335.19;;;7.33;40.29
68859;BME280;55864;49.238;8.092;2023-04-04T09:48:00;100340.16;;;7.50;40.41
68859;BME280;55864;49.238;8.092;2023-04-04T09:50:02;100332.22;;;7.64;37.62
68859;BME280;55864;49.238;8.092;2023-04-04T09:52:04;100338.44;;;8.01;39.57
68859;BME280;55864;49.238;8.092;2023-04-04T09:54:20;100330.19;;;7.95;38.56
68859;BME280;55864;49.238;8.092;2023-04-04T09:56:20;100332.06;;;8.05;37.76
68859;BME280;55864;49.238;8.092;2023-04-04T09:58:23;100329.72;;;7.63;38.72
68859;BME280;55864;49.238;8.092;2023-04-04T10:00:27;100334.91;;;7.50;39.11
68859;BME280;55864;49.238;8.092;2023-04-04T10:02:29;100338.09;;;7.81;40.60
68859;BME280;55864;49.238;8.092;2023-04-04T10:04:30;100344.19;;;7.81;39.42
68859;BME280;55864;49.238;8.092;2023-04-04T10:06:31;100337.56;;;7.63;37.22
68859;BME280;55864;49.238;8.092;2023-04-04T10:08:33;100342.66;;;7.52;38.99
68859;BME280;55864;49.238;8.092;2023-04-04T10:10:45;100343.34;;;7.81;39.00
68859;BME280;55864;49.238;8.092;2023-04-04T10:12:46;100338.72;;;7.72;37.77
68859;BME280;55864;49.238;8.092;2023-04-04T10:14:46;100333.88;;;7.53;37.64
68859;BME280;55864;49.238;8.092;2023-04-04T10:16:47;100338.53;;;7.87;38.65
68859;BME280;55864;49.238;8.092;2023-04-04T10:18:48;100330.38;;;7.79;38.31
68859;BME280;55864;49.238;8.092;2023-04-04T10:20:54;100329.22;;;7.83;38.87
68859;BME280;55864;49.238;8.092;2023-04-04T10:22:55;100330.78;;;7.86;37.81
68859;BME280;55864;49.238;8.092;2023-04-04T10:24:57;100336.00;;;7.73;37.93
68859;BME280;55864;49.238;8.092;2023-04-04T10:26:58;100330.66;;;7.75;38.86
68859;BME280;55864;49.238;8.092;2023-04-04T10:28:58;100337.88;;;7.84;39.01
68859;BME280;55864;49.238;8.092;2023-04-04T10:31:05;100336.97;;;7.72;38.41
68859;BME280;55864;49.238;8.092;2023-04-04T10:33:06;100336.84;;;7.99;37.85
68859;BME280;55864;49.238;8.092;2023-04-04T10:35:09;100331.44;;;8.02;38.37
68859;BME280;55864;49.238;8.092;2023-04-04T10:37:12;100329.09;;;7.97;39.03
68859;BME280;55864;49.238;8.092;2023-04-04T10:39:20;100333.81;;;8.05;38.19
68859;BME280;55864;49.238;8.092;2023-04-04T10:41:24;100337.38;;;8.04;38.24
68859;BME280;55864;49.238;8.092;2023-04-04T10:43:31;100329.75;;;8.13;38.88
68859;BME280;55864;49.238;8.092;2023-04-04T10:45:32;100327.78;;;8.04;39.11